Terminal Aerodrome Forecast
Issued by NWS Sterling, VA

Current Version | Previous Version | Text Only | Print | Product List | Glossary Off
Versions: 1 2 3 4 5 6 7 8 9 10 11 12 13 14 15 16 17 18 19 20 21

095
FTUS41 KLWX 052059 AAA
TAFIAD
TAF AMD
KIAD 052059Z 0521/0624 32015G22KT P6SM SCT050
     FM052200 32012KT P6SM FEW250
     FM060200 32006KT P6SM FEW250
     FM060600 00000KT P6SM FEW250
     FM061600 20006KT P6SM SCT200=

USA.gov is the U.S. government's official web portal to all federal, state and local government web resources and services.